Grande Africa — ZDJO3 — position and weather

sailwx.info

Track history (hours):
 
Tides and Currents Weather Stations Pressure Air Temp Water Temp Dewpoint Dewpoint Depression Visibility Wind Speed Wind Dir Waves Ship Positions

Grande Africa

Last reported at 2018-Feb-19 21:53 UTC. Time now 2018-Feb-20 23:51 UTC.
Position S 24°07' W 046°24'.

Length 214 m; draft 8.4 m.

Type: Ship (hazmat cat B). MMSI: 236542000.

Date/timePositionNaut miles runAvg speedWind from/ knotsBaromVisibWave heightAir tempDewpointWater temp
2018-Feb-19 21:53S 24°07' W 046°24'513.6
2018-Feb-19 21:30S 24°02' W 046°21'5 9.1
2018-Feb-19 21:00S 23°59' W 046°18'4 8.1
2018-Feb-19 20:30S 23°56' W 046°20'1 1.7
2018-Feb-19 20:00S 23°55' W 046°20'0 0.0
2018-Feb-19 19:21S 23°55' W 046°20'0 0.0
2018-Feb-19 18:57S 23°55' W 046°20'0 0.0
2018-Feb-19 18:25S 23°55' W 046°20'0 0.0
2018-Feb-19 17:57S 23°55' W 046°20'0 0.0
2018-Feb-19 17:21S 23°55' W 046°20'0 0.0
2018-Feb-19 16:51S 23°55' W 046°20'0 0.0
2018-Feb-19 16:27S 23°55' W 046°20'0 0.0
2018-Feb-19 15:57S 23°55' W 046°20'0 0.0
2018-Feb-19 15:30S 23°55' W 046°20'0 0.0
2018-Feb-19 14:54S 23°55' W 046°20'0 0.0
2018-Feb-19 14:06S 23°55' W 046°20'0 0.0
2018-Feb-19 13:52S 23°55' W 046°20'0 0.0
2018-Feb-19 13:30S 23°55' W 046°20'0 0.0
2018-Feb-19 12:57S 23°55' W 046°20'0 0.0
2018-Feb-19 12:27S 23°55' W 046°20'0 0.0
2018-Feb-19 12:00S 23°55' W 046°20'0 0.0
2018-Feb-19 11:18S 23°55' W 046°20'0 0.0
2018-Feb-19 10:57S 23°55' W 046°20'0 0.0
2018-Feb-19 10:30S 23°55' W 046°20'0 0.0
2018-Feb-19 10:00S 23°55' W 046°20'0 0.0
2018-Feb-19 09:27S 23°55' W 046°20'0 0.0
2018-Feb-19 08:57S 23°55' W 046°20'0 0.0
2018-Feb-19 08:21S 23°55' W 046°20'0 0.0
2018-Feb-19 07:57S 23°55' W 046°20'0 0.0
2018-Feb-19 07:27S 23°55' W 046°20'0 0.0
2018-Feb-19 06:57S 23°55' W 046°20'0 0.0
2018-Feb-19 06:21S 23°55' W 046°20'0 0.0
2018-Feb-19 05:57S 23°55' W 046°20'0 0.0
2018-Feb-19 05:27S 23°55' W 046°20'0 0.0
2018-Feb-19 04:57S 23°55' W 046°20'0 0.0
2018-Feb-19 04:30S 23°55' W 046°20'0 0.0
2018-Feb-19 04:00S 23°55' W 046°20'0 0.0
2018-Feb-19 03:27S 23°55' W 046°20'0 0.0
2018-Feb-19 02:57S 23°55' W 046°20'0 0.0
2018-Feb-19 02:27S 23°55' W 046°20'0 0.0
2018-Feb-19 01:51S 23°55' W 046°20'0 0.0
2018-Feb-19 01:24S 23°55' W 046°20'0 0.0
2018-Feb-19 00:57S 23°55' W 046°20'0 0.0
2018-Feb-19 00:27S 23°55' W 046°20'0 0.0
2018-Feb-18 23:57S 23°55' W 046°20'0 0.0
2018-Feb-18 23:30S 23°55' W 046°20'0 0.0
2018-Feb-18 22:57S 23°55' W 046°20'0 0.0
2018-Feb-18 22:30S 23°55' W 046°20'0 0.0
2018-Feb-18 22:00S 23°55' W 046°20'0 0.0
2018-Feb-18 21:27S 23°55' W 046°20'0 0.0
2018-Feb-18 21:00S 23°55' W 046°20'0 0.0
2018-Feb-18 20:27S 23°55' W 046°20'0 0.0
2018-Feb-18 20:01S 23°55' W 046°20'0 0.4
2018-Feb-18 19:30S 23°55' W 046°20'3 6.0
2018-Feb-18 19:00S 23°58' W 046°18'3 5.7
2018-Feb-18 18:30S 23°60' W 046°20'3 5.7
2018-Feb-18 17:58S 24°03' W 046°20'3 5.2
2018-Feb-18 17:27S 24°04' W 046°17'4 6.0
2018-Feb-18 16:46S 24°06' W 046°13'0 0.0
2018-Feb-17 15:32S 24°06' W 046°13'15011.9
2018-Feb-17 02:58S 23°19' W 043°38'612.4
2018-Feb-17 02:28S 23°16' W 043°32'612.5
2018-Feb-17 02:00S 23°13' W 043°26'612.5
2018-Feb-17 01:30S 23°11' W 043°20'612.5
2018-Feb-17 01:01S 23°08' W 043°14'612.7
2018-Feb-17 00:31S 23°03' W 043°10'712.9
2018-Feb-17 00:00S 22°56' W 043°08'5 9.3
2018-Feb-16 23:30S 22°53' W 043°12'1 1.7
2018-Feb-16 23:01S 22°53' W 043°12'0 0.0
2018-Feb-16 22:31S 22°53' W 043°12'0 0.0
2018-Feb-16 22:01S 22°53' W 043°12'0 0.0
2018-Feb-16 21:30S 22°53' W 043°12'0 0.0
2018-Feb-16 21:00S 22°53' W 043°12'0 0.0
2018-Feb-16 20:30S 22°53' W 043°12'0 0.0
2018-Feb-16 20:00S 22°53' W 043°12'0 0.0
2018-Feb-16 19:31S 22°53' W 043°12'0 0.0
2018-Feb-16 19:01S 22°53' W 043°12'0 0.0
2018-Feb-16 18:31S 22°53' W 043°12'0 0.0
2018-Feb-16 18:01S 22°53' W 043°12'0 0.0
2018-Feb-16 17:31S 22°53' W 043°12'0 0.0
2018-Feb-16 17:01S 22°53' W 043°12'0 0.0
2018-Feb-16 16:31S 22°53' W 043°12'0 0.0
2018-Feb-16 16:00S 22°53' W 043°13'0 0.0
2018-Feb-16 15:30S 22°53' W 043°12'0 0.0
2018-Feb-16 15:01S 22°53' W 043°12'0 0.0
2018-Feb-16 14:30S 22°53' W 043°13'  
Track history (hours):
 
Tides and Currents Weather Stations Pressure Air Temp Water Temp Dewpoint Dewpoint Depression Visibility Wind Speed Wind Dir Waves Ship Positions

Grande Africa

Last reported at 2018-Feb-19 21:53 UTC. Time now 2018-Feb-20 23:51 UTC.
Position S 24°07' W 046°24'.

Length 214 m; draft 8.4 m.

Type: Ship (hazmat cat B). MMSI: 236542000.

Date/timePositionNaut miles runAvg speedWind from/ knotsBaromVisibWave heightAir tempDewpointWater temp
2018-Feb-19 21:53S 24°07' W 046°24'513.6
2018-Feb-19 21:30S 24°02' W 046°21'5 9.1
2018-Feb-19 21:00S 23°59' W 046°18'4 8.1
2018-Feb-19 20:30S 23°56' W 046°20'1 1.7
2018-Feb-19 20:00S 23°55' W 046°20'0 0.0
2018-Feb-19 19:21S 23°55' W 046°20'0 0.0
2018-Feb-19 18:57S 23°55' W 046°20'0 0.0
2018-Feb-19 18:25S 23°55' W 046°20'0 0.0
2018-Feb-19 17:57S 23°55' W 046°20'0 0.0
2018-Feb-19 17:21S 23°55' W 046°20'0 0.0
2018-Feb-19 16:51S 23°55' W 046°20'0 0.0
2018-Feb-19 16:27S 23°55' W 046°20'0 0.0
2018-Feb-19 15:57S 23°55' W 046°20'0 0.0
2018-Feb-19 15:30S 23°55' W 046°20'0 0.0
2018-Feb-19 14:54S 23°55' W 046°20'0 0.0
2018-Feb-19 14:06S 23°55' W 046°20'0 0.0
2018-Feb-19 13:52S 23°55' W 046°20'0 0.0
2018-Feb-19 13:30S 23°55' W 046°20'0 0.0
2018-Feb-19 12:57S 23°55' W 046°20'0 0.0
2018-Feb-19 12:27S 23°55' W 046°20'0 0.0
2018-Feb-19 12:00S 23°55' W 046°20'0 0.0
2018-Feb-19 11:18S 23°55' W 046°20'0 0.0
2018-Feb-19 10:57S 23°55' W 046°20'0 0.0
2018-Feb-19 10:30S 23°55' W 046°20'0 0.0
2018-Feb-19 10:00S 23°55' W 046°20'0 0.0
2018-Feb-19 09:27S 23°55' W 046°20'0 0.0
2018-Feb-19 08:57S 23°55' W 046°20'0 0.0
2018-Feb-19 08:21S 23°55' W 046°20'0 0.0
2018-Feb-19 07:57S 23°55' W 046°20'0 0.0
2018-Feb-19 07:27S 23°55' W 046°20'0 0.0
2018-Feb-19 06:57S 23°55' W 046°20'0 0.0
2018-Feb-19 06:21S 23°55' W 046°20'0 0.0
2018-Feb-19 05:57S 23°55' W 046°20'0 0.0
2018-Feb-19 05:27S 23°55' W 046°20'0 0.0
2018-Feb-19 04:57S 23°55' W 046°20'0 0.0
2018-Feb-19 04:30S 23°55' W 046°20'0 0.0
2018-Feb-19 04:00S 23°55' W 046°20'0 0.0
2018-Feb-19 03:27S 23°55' W 046°20'0 0.0
2018-Feb-19 02:57S 23°55' W 046°20'0 0.0
2018-Feb-19 02:27S 23°55' W 046°20'0 0.0
2018-Feb-19 01:51S 23°55' W 046°20'0 0.0
2018-Feb-19 01:24S 23°55' W 046°20'0 0.0
2018-Feb-19 00:57S 23°55' W 046°20'0 0.0
2018-Feb-19 00:27S 23°55' W 046°20'0 0.0
2018-Feb-18 23:57S 23°55' W 046°20'0 0.0
2018-Feb-18 23:30S 23°55' W 046°20'0 0.0
2018-Feb-18 22:57S 23°55' W 046°20'0 0.0
2018-Feb-18 22:30S 23°55' W 046°20'0 0.0
2018-Feb-18 22:00S 23°55' W 046°20'0 0.0
2018-Feb-18 21:27S 23°55' W 046°20'0 0.0
2018-Feb-18 21:00S 23°55' W 046°20'0 0.0
2018-Feb-18 20:27S 23°55' W 046°20'0 0.0
2018-Feb-18 20:01S 23°55' W 046°20'0 0.4
2018-Feb-18 19:30S 23°55' W 046°20'3 6.0
2018-Feb-18 19:00S 23°58' W 046°18'3 5.7
2018-Feb-18 18:30S 23°60' W 046°20'3 5.7
2018-Feb-18 17:58S 24°03' W 046°20'3 5.2
2018-Feb-18 17:27S 24°04' W 046°17'4 6.0
2018-Feb-18 16:46S 24°06' W 046°13'0 0.0
2018-Feb-17 15:32S 24°06' W 046°13'15011.9
2018-Feb-17 02:58S 23°19' W 043°38'612.4
2018-Feb-17 02:28S 23°16' W 043°32'612.5
2018-Feb-17 02:00S 23°13' W 043°26'612.5
2018-Feb-17 01:30S 23°11' W 043°20'612.5
2018-Feb-17 01:01S 23°08' W 043°14'612.7
2018-Feb-17 00:31S 23°03' W 043°10'712.9
2018-Feb-17 00:00S 22°56' W 043°08'5 9.3
2018-Feb-16 23:30S 22°53' W 043°12'1 1.7
2018-Feb-16 23:01S 22°53' W 043°12'0 0.0
2018-Feb-16 22:31S 22°53' W 043°12'0 0.0
2018-Feb-16 22:01S 22°53' W 043°12'0 0.0
2018-Feb-16 21:30S 22°53' W 043°12'0 0.0
2018-Feb-16 21:00S 22°53' W 043°12'0 0.0
2018-Feb-16 20:30S 22°53' W 043°12'0 0.0
2018-Feb-16 20:00S 22°53' W 043°12'0 0.0
2018-Feb-16 19:31S 22°53' W 043°12'0 0.0
2018-Feb-16 19:01S 22°53' W 043°12'0 0.0
2018-Feb-16 18:31S 22°53' W 043°12'0 0.0
2018-Feb-16 18:01S 22°53' W 043°12'0 0.0
2018-Feb-16 17:31S 22°53' W 043°12'0 0.0
2018-Feb-16 17:01S 22°53' W 043°12'0 0.0
2018-Feb-16 16:31S 22°53' W 043°12'0 0.0
2018-Feb-16 16:00S 22°53' W 043°13'0 0.0
2018-Feb-16 15:30S 22°53' W 043°12'0 0.0
2018-Feb-16 15:01S 22°53' W 043°12'0 0.0
2018-Feb-16 14:30S 22°53' W 043°13'  

Dump ship's entire track history